sensor_id;sensor_type;location;lat;lon;timestamp;pressure;altitude;pressure_sealevel;temperature;humidity
42945;BME280;28584;42.636;23.294;2022-12-07T00:01:31;102721.00;;;3.24;100.00
42945;BME280;28584;42.636;23.294;2022-12-07T00:03:59;102877.19;;;3.22;100.00
42945;BME280;28584;42.636;23.294;2022-12-07T00:06:36;102806.66;;;3.16;100.00
42945;BME280;28584;42.636;23.294;2022-12-07T00:09:03;102929.53;;;3.13;100.00
42945;BME280;28584;42.636;23.294;2022-12-07T00:11:29;102989.31;;;3.28;100.00
42945;BME280;28584;42.636;23.294;2022-12-07T00:13:57;102966.16;;;3.25;100.00
42945;BME280;28584;42.636;23.294;2022-12-07T00:16:25;102833.28;;;3.28;100.00
42945;BME280;28584;42.636;23.294;2022-12-07T00:18:50;102709.50;;;3.30;100.00
42945;BME280;28584;42.636;23.294;2022-12-07T00:21:18;102371.03;;;3.33;100.00
42945;BME280;28584;42.636;23.294;2022-12-07T00:23:46;102310.88;;;3.31;100.00
42945;BME280;28584;42.636;23.294;2022-12-07T00:26:14;102069.94;;;3.33;100.00
42945;BME280;28584;42.636;23.294;2022-12-07T00:28:40;101836.41;;;3.40;100.00
42945;BME280;28584;42.636;23.294;2022-12-07T00:31:09;101148.34;;;3.35;100.00
42945;BME280;28584;42.636;23.294;2022-12-07T00:33:36;101057.84;;;3.24;100.00
42945;BME280;28584;42.636;23.294;2022-12-07T00:36:03;100952.81;;;3.21;100.00
42945;BME280;28584;42.636;23.294;2022-12-07T00:38:32;101019.75;;;3.19;100.00
42945;BME280;28584;42.636;23.294;2022-12-07T00:40:58;101052.88;;;3.34;100.00
42945;BME280;28584;42.636;23.294;2022-12-07T00:43:24;100740.69;;;3.24;100.00
42945;BME280;28584;42.636;23.294;2022-12-07T00:45:50;101009.19;;;3.37;100.00
42945;BME280;28584;42.636;23.294;2022-12-07T00:48:15;100947.00;;;3.31;100.00
42945;BME280;28584;42.636;23.294;2022-12-07T00:50:41;100710.47;;;3.40;100.00
42945;BME280;28584;42.636;23.294;2022-12-07T00:53:06;100650.47;;;3.18;100.00
42945;BME280;28584;42.636;23.294;2022-12-07T00:55:35;101479.56;;;3.18;100.00
42945;BME280;28584;42.636;23.294;2022-12-07T00:58:00;101352.13;;;3.00;100.00
42945;BME280;28584;42.636;23.294;2022-12-07T01:00:26;101658.97;;;2.81;100.00
42945;BME280;28584;42.636;23.294;2022-12-07T01:02:52;102898.59;;;2.90;100.00
42945;BME280;28584;42.636;23.294;2022-12-07T01:05:17;103840.25;;;2.92;100.00
42945;BME280;28584;42.636;23.294;2022-12-07T01:07:43;104581.88;;;2.97;100.00
42945;BME280;28584;42.636;23.294;2022-12-07T01:10:09;105153.09;;;3.05;100.00
42945;BME280;28584;42.636;23.294;2022-12-07T01:12:34;105538.66;;;3.14;100.00
42945;BME280;28584;42.636;23.294;2022-12-07T01:15:00;105888.63;;;3.16;100.00
42945;BME280;28584;42.636;23.294;2022-12-07T01:17:25;106116.56;;;3.22;100.00
42945;BME280;28584;42.636;23.294;2022-12-07T01:19:50;106449.41;;;3.27;100.00
42945;BME280;28584;42.636;23.294;2022-12-07T01:22:16;106350.75;;;3.14;100.00
42945;BME280;28584;42.636;23.294;2022-12-07T01:24:41;106762.03;;;2.98;100.00
42945;BME280;28584;42.636;23.294;2022-12-07T01:27:07;107186.09;;;2.99;100.00
42945;BME280;28584;42.636;23.294;2022-12-07T01:29:32;107331.66;;;2.91;100.00
42945;BME280;28584;42.636;23.294;2022-12-07T01:31:57;107716.22;;;2.85;100.00
42945;BME280;28584;42.636;23.294;2022-12-07T01:34:23;107907.53;;;2.86;100.00
42945;BME280;28584;42.636;23.294;2022-12-07T01:36:48;108024.78;;;2.88;100.00
42945;BME280;28584;42.636;23.294;2022-12-07T01:39:13;108175.50;;;2.87;100.00
42945;BME280;28584;42.636;23.294;2022-12-07T01:41:40;108188.84;;;3.00;100.00
42945;BME280;28584;42.636;23.294;2022-12-07T01:44:30;108125.91;;;2.87;100.00
42945;BME280;28584;42.636;23.294;2022-12-07T01:47:02;108234.09;;;2.93;100.00
42945;BME280;28584;42.636;23.294;2022-12-07T01:49:38;108263.03;;;2.89;100.00
42945;BME280;28584;42.636;23.294;2022-12-07T01:52:24;108316.22;;;2.92;100.00
42945;BME280;28584;42.636;23.294;2022-12-07T01:54:54;108321.53;;;3.01;100.00
42945;BME280;28584;42.636;23.294;2022-12-07T01:57:22;108254.84;;;2.94;100.00
42945;BME280;28584;42.636;23.294;2022-12-07T01:59:49;108297.94;;;3.06;100.00
42945;BME280;28584;42.636;23.294;2022-12-07T02:02:23;108164.66;;;2.87;100.00
42945;BME280;28584;42.636;23.294;2022-12-07T02:04:52;108357.59;;;3.03;100.00
42945;BME280;28584;42.636;23.294;2022-12-07T02:07:20;108381.16;;;2.98;100.00
42945;BME280;28584;42.636;23.294;2022-12-07T02:09:45;108447.97;;;2.96;100.00
42945;BME280;28584;42.636;23.294;2022-12-07T02:12:11;108379.31;;;3.00;100.00
42945;BME280;28584;42.636;23.294;2022-12-07T02:14:36;108314.47;;;2.91;100.00
42945;BME280;28584;42.636;23.294;2022-12-07T02:27:48;109320.13;;;2.93;100.00
42945;BME280;28584;42.636;23.294;2022-12-07T02:30:17;109356.22;;;2.86;100.00
42945;BME280;28584;42.636;23.294;2022-12-07T02:32:46;109488.00;;;2.81;100.00
42945;BME280;28584;42.636;23.294;2022-12-07T02:35:42;109738.16;;;2.92;100.00
42945;BME280;28584;42.636;23.294;2022-12-07T02:38:38;109812.97;;;2.78;100.00
42945;BME280;28584;42.636;23.294;2022-12-07T02:41:10;109859.81;;;2.68;100.00
42945;BME280;28584;42.636;23.294;2022-12-07T02:43:41;109874.16;;;2.58;100.00
42945;BME280;28584;42.636;23.294;2022-12-07T02:46:11;109873.19;;;2.51;100.00
42945;BME280;28584;42.636;23.294;2022-12-07T02:48:39;109863.34;;;2.56;100.00
42945;BME280;28584;42.636;23.294;2022-12-07T02:51:06;109716.94;;;2.38;100.00
42945;BME280;28584;42.636;23.294;2022-12-07T02:53:39;110064.44;;;2.46;100.00
42945;BME280;28584;42.636;23.294;2022-12-07T02:56:17;110227.72;;;2.44;100.00
42945;BME280;28584;42.636;23.294;2022-12-07T03:06:42;110390.47;;;2.16;100.00
42945;BME280;28584;42.636;23.294;2022-12-07T03:09:16;110526.91;;;2.24;100.00
42945;BME280;28584;42.636;23.294;2022-12-07T03:11:49;110328.59;;;2.32;100.00
42945;BME280;28584;42.636;23.294;2022-12-07T03:14:21;110362.16;;;2.42;100.00
42945;BME280;28584;42.636;23.294;2022-12-07T03:16:57;110259.25;;;2.40;100.00
42945;BME280;28584;42.636;23.294;2022-12-07T03:19:26;110415.34;;;2.40;100.00
42945;BME280;28584;42.636;23.294;2022-12-07T03:21:57;110496.34;;;2.29;100.00
42945;BME280;28584;42.636;23.294;2022-12-07T03:24:28;110536.72;;;2.20;100.00
42945;BME280;28584;42.636;23.294;2022-12-07T03:27:01;111025.19;;;2.33;100.00
42945;BME280;28584;42.636;23.294;2022-12-07T03:29:34;111498.41;;;2.40;100.00
42945;BME280;28584;42.636;23.294;2022-12-07T03:32:05;111730.69;;;2.47;100.00
42945;BME280;28584;42.636;23.294;2022-12-07T03:34:46;111845.59;;;2.52;100.00
42945;BME280;28584;42.636;23.294;2022-12-07T03:37:18;112028.22;;;2.57;100.00
42945;BME280;28584;42.636;23.294;2022-12-07T03:40:10;112122.25;;;2.59;100.00
42945;BME280;28584;42.636;23.294;2022-12-07T03:42:38;112143.28;;;2.46;100.00
42945;BME280;28584;42.636;23.294;2022-12-07T03:45:04;112447.69;;;2.48;100.00
42945;BME280;28584;42.636;23.294;2022-12-07T03:47:34;112465.13;;;2.53;100.00
42945;BME280;28584;42.636;23.294;2022-12-07T03:50:08;112474.09;;;2.52;100.00
42945;BME280;28584;42.636;23.294;2022-12-07T03:52:40;112478.91;;;2.57;100.00
42945;BME280;28584;42.636;23.294;2022-12-07T03:57:36;112555.84;;;2.61;100.00
42945;BME280;28584;42.636;23.294;2022-12-07T04:00:05;112518.78;;;2.60;100.00
42945;BME280;28584;42.636;23.294;2022-12-07T04:02:31;112604.41;;;2.56;100.00
42945;BME280;28584;42.636;23.294;2022-12-07T04:04:58;112663.75;;;2.52;100.00
42945;BME280;28584;42.636;23.294;2022-12-07T04:07:23;112750.56;;;2.53;100.00
42945;BME280;28584;42.636;23.294;2022-12-07T04:09:49;112876.09;;;2.54;100.00
42945;BME280;28584;42.636;23.294;2022-12-07T04:12:14;113021.03;;;2.46;100.00
42945;BME280;28584;42.636;23.294;2022-12-07T04:14:39;113180.91;;;2.46;100.00
42945;BME280;28584;42.636;23.294;2022-12-07T04:17:05;113303.69;;;2.45;100.00
42945;BME280;28584;42.636;23.294;2022-12-07T04:19:32;113379.56;;;2.45;100.00
42945;BME280;28584;42.636;23.294;2022-12-07T04:22:00;113455.09;;;2.40;100.00
42945;BME280;28584;42.636;23.294;2022-12-07T04:24:26;113495.25;;;2.21;100.00
42945;BME280;28584;42.636;23.294;2022-12-07T04:26:52;113546.78;;;2.34;100.00
42945;BME280;28584;42.636;23.294;2022-12-07T04:29:18;113508.75;;;2.33;100.00
42945;BME280;28584;42.636;23.294;2022-12-07T04:31:44;113434.47;;;2.29;100.00
42945;BME280;28584;42.636;23.294;2022-12-07T04:34:10;113300.56;;;2.26;100.00
42945;BME280;28584;42.636;23.294;2022-12-07T04:36:36;113208.78;;;2.17;100.00
42945;BME280;28584;42.636;23.294;2022-12-07T04:39:03;112995.41;;;2.26;100.00
42945;BME280;28584;42.636;23.294;2022-12-07T04:41:28;112789.84;;;2.31;100.00
42945;BME280;28584;42.636;23.294;2022-12-07T04:43:58;112647.59;;;2.23;100.00
42945;BME280;28584;42.636;23.294;2022-12-07T04:46:25;112515.78;;;2.22;100.00
42945;BME280;28584;42.636;23.294;2022-12-07T04:48:52;112497.31;;;2.15;100.00
42945;BME280;28584;42.636;23.294;2022-12-07T04:51:21;112481.00;;;2.13;100.00
42945;BME280;28584;42.636;23.294;2022-12-07T04:53:47;112537.09;;;2.00;100.00
42945;BME280;28584;42.636;23.294;2022-12-07T04:56:14;112245.81;;;2.03;100.00
42945;BME280;28584;42.636;23.294;2022-12-07T04:58:39;112090.81;;;2.07;100.00
42945;BME280;28584;42.636;23.294;2022-12-07T05:01:05;112038.75;;;2.13;100.00
42945;BME280;28584;42.636;23.294;2022-12-07T05:03:30;111898.28;;;2.00;100.00
42945;BME280;28584;42.636;23.294;2022-12-07T05:05:55;111821.84;;;2.05;100.00
42945;BME280;28584;42.636;23.294;2022-12-07T05:08:21;111760.63;;;2.09;100.00
42945;BME280;28584;42.636;23.294;2022-12-07T05:10:48;111543.13;;;2.07;100.00
42945;BME280;28584;42.636;23.294;2022-12-07T05:13:13;111696.19;;;2.21;100.00
42945;BME280;28584;42.636;23.294;2022-12-07T05:15:39;111864.53;;;2.31;100.00
42945;BME280;28584;42.636;23.294;2022-12-07T05:18:04;112124.72;;;2.36;100.00
42945;BME280;28584;42.636;23.294;2022-12-07T05:20:30;112419.59;;;2.46;100.00
42945;BME280;28584;42.636;23.294;2022-12-07T05:22:55;112841.09;;;2.42;100.00
42945;BME280;28584;42.636;23.294;2022-12-07T05:25:20;113208.94;;;2.46;100.00
42945;BME280;28584;42.636;23.294;2022-12-07T05:27:46;113579.47;;;2.49;100.00
42945;BME280;28584;42.636;23.294;2022-12-07T05:30:12;113831.03;;;2.43;100.00
42945;BME280;28584;42.636;23.294;2022-12-07T05:32:38;114051.72;;;2.35;100.00
42945;BME280;28584;42.636;23.294;2022-12-07T05:35:03;114257.66;;;2.35;100.00
42945;BME280;28584;42.636;23.294;2022-12-07T05:37:29;114399.66;;;2.37;100.00
42945;BME280;28584;42.636;23.294;2022-12-07T05:39:54;114478.91;;;2.44;100.00
42945;BME280;28584;42.636;23.294;2022-12-07T05:42:19;114513.47;;;2.37;100.00
42945;BME280;28584;42.636;23.294;2022-12-07T05:44:46;114642.22;;;2.32;100.00
42945;BME280;28584;42.636;23.294;2022-12-07T05:47:13;114598.31;;;2.26;100.00
42945;BME280;28584;42.636;23.294;2022-12-07T05:49:38;114731.94;;;2.25;100.00
42945;BME280;28584;42.636;23.294;2022-12-07T05:52:04;115068.13;;;2.26;100.00
42945;BME280;28584;42.636;23.294;2022-12-07T05:54:29;115400.03;;;2.30;100.00
42945;BME280;28584;42.636;23.294;2022-12-07T05:56:55;115581.97;;;2.41;100.00
42945;BME280;28584;42.636;23.294;2022-12-07T05:59:22;115914.94;;;2.37;100.00
42945;BME280;28584;42.636;23.294;2022-12-07T06:01:49;116139.50;;;2.32;100.00
42945;BME280;28584;42.636;23.294;2022-12-07T06:04:15;116348.63;;;2.51;100.00
42945;BME280;28584;42.636;23.294;2022-12-07T06:06:41;116378.38;;;2.58;100.00
42945;BME280;28584;42.636;23.294;2022-12-07T06:09:06;116502.59;;;2.60;100.00
42945;BME280;28584;42.636;23.294;2022-12-07T06:11:32;116776.19;;;2.64;100.00
42945;BME280;28584;42.636;23.294;2022-12-07T06:14:16;116831.50;;;2.80;100.00
42945;BME280;28584;42.636;23.294;2022-12-07T06:16:41;117336.56;;;2.82;100.00
42945;BME280;28584;42.636;23.294;2022-12-07T06:19:07;117597.03;;;2.94;100.00
42945;BME280;28584;42.636;23.294;2022-12-07T06:21:32;117402.53;;;2.95;100.00
42945;BME280;28584;42.636;23.294;2022-12-07T06:23:58;117500.31;;;3.02;100.00
42945;BME280;28584;42.636;23.294;2022-12-07T06:26:23;117389.41;;;3.19;100.00
42945;BME280;28584;42.636;23.294;2022-12-07T06:28:49;117326.16;;;3.34;100.00
42945;BME280;28584;42.636;23.294;2022-12-07T06:31:14;117230.13;;;3.48;100.00
42945;BME280;28584;42.636;23.294;2022-12-07T06:33:40;117167.78;;;3.63;100.00
42945;BME280;28584;42.636;23.294;2022-12-07T06:36:06;116843.44;;;3.56;100.00
42945;BME280;28584;42.636;23.294;2022-12-07T06:38:32;117630.94;;;3.51;100.00
42945;BME280;28584;42.636;23.294;2022-12-07T06:40:57;117498.34;;;3.42;100.00
42945;BME280;28584;42.636;23.294;2022-12-07T06:43:22;117381.50;;;3.35;100.00
42945;BME280;28584;42.636;23.294;2022-12-07T06:45:48;117314.56;;;3.42;100.00
42945;BME280;28584;42.636;23.294;2022-12-07T06:48:13;117184.56;;;3.31;100.00
42945;BME280;28584;42.636;23.294;2022-12-07T06:50:39;117016.19;;;3.10;100.00
42945;BME280;28584;42.636;23.294;2022-12-07T06:53:04;117435.38;;;3.18;100.00
42945;BME280;28584;42.636;23.294;2022-12-07T06:55:30;117448.03;;;3.24;100.00
42945;BME280;28584;42.636;23.294;2022-12-07T06:57:55;117562.03;;;3.51;100.00
42945;BME280;28584;42.636;23.294;2022-12-07T07:00:21;117476.41;;;3.47;100.00
42945;BME280;28584;42.636;23.294;2022-12-07T07:02:46;117434.69;;;3.47;100.00
42945;BME280;28584;42.636;23.294;2022-12-07T07:05:12;117322.69;;;3.28;100.00
42945;BME280;28584;42.636;23.294;2022-12-07T07:07:37;117431.75;;;3.24;100.00
42945;BME280;28584;42.636;23.294;2022-12-07T07:10:03;117450.78;;;3.38;100.00
42945;BME280;28584;42.636;23.294;2022-12-07T07:12:28;117398.59;;;3.62;100.00
42945;BME280;28584;42.636;23.294;2022-12-07T07:14:53;117372.41;;;3.76;100.00
42945;BME280;28584;42.636;23.294;2022-12-07T07:17:19;117259.66;;;4.02;100.00
42945;BME280;28584;42.636;23.294;2022-12-07T07:19:44;117140.03;;;3.95;100.00
42945;BME280;28584;42.636;23.294;2022-12-07T07:22:10;117132.69;;;3.51;100.00
42945;BME280;28584;42.636;23.294;2022-12-07T07:24:35;117046.28;;;3.48;100.00
42945;BME280;28584;42.636;23.294;2022-12-07T07:27:00;117358.22;;;3.44;100.00
42945;BME280;28584;42.636;23.294;2022-12-07T07:29:26;117448.81;;;3.37;100.00
42945;BME280;28584;42.636;23.294;2022-12-07T07:31:51;117491.69;;;3.33;100.00
42945;BME280;28584;42.636;23.294;2022-12-07T07:34:17;117568.38;;;3.37;100.00
42945;BME280;28584;42.636;23.294;2022-12-07T07:36:42;117278.44;;;3.36;100.00
42945;BME280;28584;42.636;23.294;2022-12-07T07:39:09;117599.38;;;3.73;100.00
42945;BME280;28584;42.636;23.294;2022-12-07T07:41:34;117340.75;;;3.42;100.00
42945;BME280;28584;42.636;23.294;2022-12-07T07:44:00;117599.41;;;3.87;100.00
42945;BME280;28584;42.636;23.294;2022-12-07T07:46:25;117166.66;;;4.27;100.00
42945;BME280;28584;42.636;23.294;2022-12-07T07:48:50;116816.22;;;4.63;100.00
42945;BME280;28584;42.636;23.294;2022-12-07T07:51:16;116624.25;;;4.99;100.00
42945;BME280;28584;42.636;23.294;2022-12-07T07:53:41;116349.16;;;5.24;100.00
42945;BME280;28584;42.636;23.294;2022-12-07T07:56:06;115766.28;;;5.44;100.00
42945;BME280;28584;42.636;23.294;2022-12-07T07:58:32;114652.72;;;5.53;100.00
42945;BME280;28584;42.636;23.294;2022-12-07T08:01:03;113425.31;;;4.78;100.00
42945;BME280;28584;42.636;23.294;2022-12-07T08:03:29;112487.28;;;4.84;100.00
42945;BME280;28584;42.636;23.294;2022-12-07T08:05:54;110881.13;;;4.76;100.00
42945;BME280;28584;42.636;23.294;2022-12-07T08:08:20;109669.13;;;4.50;100.00
42945;BME280;28584;42.636;23.294;2022-12-07T08:10:45;108332.38;;;4.83;100.00
42945;BME280;28584;42.636;23.294;2022-12-07T08:13:10;107022.25;;;4.67;100.00
42945;BME280;28584;42.636;23.294;2022-12-07T08:15:37;105604.22;;;4.73;100.00
42945;BME280;28584;42.636;23.294;2022-12-07T08:18:03;104452.97;;;4.93;100.00
42945;BME280;28584;42.636;23.294;2022-12-07T08:20:33;102808.31;;;4.97;100.00
42945;BME280;28584;42.636;23.294;2022-12-07T08:22:59;100963.09;;;4.98;100.00
42945;BME280;28584;42.636;23.294;2022-12-07T08:25:25;99662.19;;;4.97;100.00
42945;BME280;28584;42.636;23.294;2022-12-07T08:27:51;97669.88;;;5.01;100.00
42945;BME280;28584;42.636;23.294;2022-12-07T08:30:17;94129.22;;;4.84;100.00
42945;BME280;28584;42.636;23.294;2022-12-07T08:32:44;92582.69;;;4.92;100.00
42945;BME280;28584;42.636;23.294;2022-12-07T08:35:10;91663.31;;;4.92;100.00
42945;BME280;28584;42.636;23.294;2022-12-07T08:37:36;90211.66;;;4.86;100.00
42945;BME280;28584;42.636;23.294;2022-12-07T08:40:02;89652.31;;;4.97;100.00
42945;BME280;28584;42.636;23.294;2022-12-07T08:42:27;89361.94;;;4.98;100.00
42945;BME280;28584;42.636;23.294;2022-12-07T08:44:56;88917.28;;;5.03;100.00
42945;BME280;28584;42.636;23.294;2022-12-07T08:47:22;88370.03;;;4.42;100.00
42945;BME280;28584;42.636;23.294;2022-12-07T08:49:49;88792.56;;;4.43;100.00
42945;BME280;28584;42.636;23.294;2022-12-07T08:52:15;88319.31;;;4.74;100.00
42945;BME280;28584;42.636;23.294;2022-12-07T08:54:41;87666.25;;;5.01;100.00
42945;BME280;28584;42.636;23.294;2022-12-07T08:57:08;86952.97;;;5.23;100.00
42945;BME280;28584;42.636;23.294;2022-12-07T08:59:35;86450.34;;;5.50;100.00
42945;BME280;28584;42.636;23.294;2022-12-07T09:02:02;86042.25;;;5.71;100.00
42945;BME280;28584;42.636;23.294;2022-12-07T09:04:28;85924.91;;;5.86;100.00
42945;BME280;28584;42.636;23.294;2022-12-07T09:06:54;86264.25;;;5.87;100.00
42945;BME280;28584;42.636;23.294;2022-12-07T09:09:20;87048.97;;;5.85;100.00
42945;BME280;28584;42.636;23.294;2022-12-07T09:11:45;88304.69;;;5.86;100.00
42945;BME280;28584;42.636;23.294;2022-12-07T09:14:11;89759.91;;;5.76;100.00
42945;BME280;28584;42.636;23.294;2022-12-07T09:16:38;90922.81;;;5.70;100.00
42945;BME280;28584;42.636;23.294;2022-12-07T09:19:03;91718.50;;;5.73;100.00
42945;BME280;28584;42.636;23.294;2022-12-07T09:21:29;91313.31;;;5.79;100.00
42945;BME280;28584;42.636;23.294;2022-12-07T09:23:55;90432.47;;;5.92;100.00
42945;BME280;28584;42.636;23.294;2022-12-07T09:26:20;89905.78;;;5.79;100.00
42945;BME280;28584;42.636;23.294;2022-12-07T09:28:46;88257.03;;;6.03;100.00
42945;BME280;28584;42.636;23.294;2022-12-07T09:31:11;87757.41;;;6.45;100.00
42945;BME280;28584;42.636;23.294;2022-12-07T09:33:37;88972.47;;;6.76;100.00
42945;BME280;28584;42.636;23.294;2022-12-07T09:36:03;93067.84;;;6.91;100.00
42945;BME280;28584;42.636;23.294;2022-12-07T09:38:28;100001.19;;;6.84;100.00
42945;BME280;28584;42.636;23.294;2022-12-07T09:40:55;108101.06;;;6.96;100.00
42945;BME280;28584;42.636;23.294;2022-12-07T09:43:23;120415.50;;;6.88;100.00
42945;BME280;28584;42.636;23.294;2022-12-07T09:45:54;140439.50;;;6.70;100.00
42945;BME280;28584;42.636;23.294;2022-12-07T09:48:33;148401.13;;;6.34;100.00
42945;BME280;28584;42.636;23.294;2022-12-07T09:51:02;151898.31;;;6.78;100.00
42945;BME280;28584;42.636;23.294;2022-12-07T09:53:37;160095.50;;;7.04;100.00
42945;BME280;28584;42.636;23.294;2022-12-07T09:56:04;160427.44;;;7.04;100.00
42945;BME280;28584;42.636;23.294;2022-12-07T09:58:31;160530.06;;;7.42;100.00
42945;BME280;28584;42.636;23.294;2022-12-07T10:03:45;160651.31;;;7.88;100.00
42945;BME280;28584;42.636;23.294;2022-12-07T10:06:13;160704.66;;;8.08;100.00
42945;BME280;28584;42.636;23.294;2022-12-07T10:08:39;160750.06;;;8.25;100.00
42945;BME280;28584;42.636;23.294;2022-12-07T10:11:06;160815.44;;;8.50;100.00
42945;BME280;28584;42.636;23.294;2022-12-07T10:13:38;160896.78;;;8.80;100.00
42945;BME280;28584;42.636;23.294;2022-12-07T10:16:07;161046.22;;;9.36;100.00
42945;BME280;28584;42.636;23.294;2022-12-07T10:18:53;161155.69;;;9.77;100.00
42945;BME280;28584;42.636;23.294;2022-12-07T10:21:23;161153.03;;;9.76;100.00
42945;BME280;28584;42.636;23.294;2022-12-07T10:24:05;161115.66;;;9.62;100.00
42945;BME280;28584;42.636;23.294;2022-12-07T10:26:37;161095.63;;;9.55;100.00
42945;BME280;28584;42.636;23.294;2022-12-07T10:29:23;161118.31;;;9.63;100.00
42945;BME280;28584;42.636;23.294;2022-12-07T10:31:54;161024.88;;;9.28;100.00
42945;BME280;28584;42.636;23.294;2022-12-07T10:34:31;160980.84;;;9.12;100.00
42945;BME280;28584;42.636;23.294;2022-12-07T10:44:46;160838.09;;;8.58;100.00
42945;BME280;28584;42.636;23.294;2022-12-07T11:06:20;161019.53;;;9.26;100.00
42945;BME280;28584;42.636;23.294;2022-12-07T11:11:53;161114.31;;;9.62;100.00
42945;BME280;28584;42.636;23.294;2022-12-07T11:14:34;161110.28;;;9.60;100.00
42945;BME280;28584;42.636;23.294;2022-12-07T11:17:12;161084.94;;;9.51;100.00
42945;BME280;28584;42.636;23.294;2022-12-07T11:19:42;161080.94;;;9.49;100.00
42945;BME280;28584;42.636;23.294;2022-12-07T11:25:18;161067.56;;;9.44;100.00
42945;BME280;28584;42.636;23.294;2022-12-07T11:28:10;161075.56;;;9.47;100.00
42945;BME280;28584;42.636;23.294;2022-12-07T11:33:25;161075.56;;;9.47;100.00
42945;BME280;28584;42.636;23.294;2022-12-07T11:38:28;160958.16;;;9.03;100.00
42945;BME280;28584;42.636;23.294;2022-12-07T11:41:01;160904.78;;;8.83;100.00
42945;BME280;28584;42.636;23.294;2022-12-07T11:43:46;160928.78;;;8.92;100.00
42945;BME280;28584;42.636;23.294;2022-12-07T11:46:16;160920.81;;;8.89;100.00
42945;BME280;28584;42.636;23.294;2022-12-07T11:51:23;160931.47;;;8.93;100.00
42945;BME280;28584;42.636;23.294;2022-12-07T11:53:51;160962.16;;;9.05;100.00
42945;BME280;28584;42.636;23.294;2022-12-07T11:56:20;160971.50;;;9.08;100.00
42945;BME280;28584;42.636;23.294;2022-12-07T12:01:45;160823.38;;;8.52;100.00
42945;BME280;28584;42.636;23.294;2022-12-07T12:04:25;160760.72;;;8.29;100.00
42945;BME280;28584;42.636;23.294;2022-12-07T12:06:53;160735.34;;;8.19;100.00
42945;BME280;28584;42.636;23.294;2022-12-07T12:09:21;160775.38;;;8.34;100.00
42945;BME280;28584;42.636;23.294;2022-12-07T12:12:17;160763.38;;;8.30;100.00
42945;BME280;28584;42.636;23.294;2022-12-07T12:20:42;160851.41;;;8.63;100.00
42945;BME280;28584;42.636;23.294;2022-12-07T12:23:27;160848.75;;;8.62;100.00
42945;BME280;28584;42.636;23.294;2022-12-07T12:26:01;160838.09;;;8.58;100.00
42945;BME280;28584;42.636;23.294;2022-12-07T12:28:40;160775.38;;;8.34;100.00
42945;BME280;28584;42.636;23.294;2022-12-07T12:31:13;160711.31;;;8.10;100.00
42945;BME280;28584;42.636;23.294;2022-12-07T12:33:44;160755.41;;;8.27;100.00
42945;BME280;28584;42.636;23.294;2022-12-07T12:46:54;161011.50;;;9.23;100.00
42945;BME280;28584;42.636;23.294;2022-12-07T12:54:30;161111.66;;;9.61;100.00
42945;BME280;28584;42.636;23.294;2022-12-07T12:57:09;161123.66;;;9.65;100.00
42945;BME280;28584;42.636;23.294;2022-12-07T13:02:46;161141.00;;;9.72;100.00
42945;BME280;28584;42.636;23.294;2022-12-07T13:15:43;160992.81;;;9.16;100.00
42945;BME280;28584;42.636;23.294;2022-12-07T13:23:35;160926.13;;;8.91;100.00
42945;BME280;28584;42.636;23.294;2022-12-07T13:26:18;160858.06;;;8.66;100.00
42945;BME280;28584;42.636;23.294;2022-12-07T13:28:51;160883.41;;;8.75;100.00
42945;BME280;28584;42.636;23.294;2022-12-07T13:31:23;160783.38;;;8.37;100.00
42945;BME280;28584;42.636;23.294;2022-12-07T13:33:49;160766.06;;;8.31;100.00
42945;BME280;28584;42.636;23.294;2022-12-07T13:38:51;160763.38;;;8.30;100.00
42945;BME280;28584;42.636;23.294;2022-12-07T13:41:19;160723.31;;;8.15;100.00
42945;BME280;28584;42.636;23.294;2022-12-07T13:44:01;160718.03;;;8.13;100.00
42945;BME280;28584;42.636;23.294;2022-12-07T13:49:31;160686.00;;;8.01;100.00
42945;BME280;28584;42.636;23.294;2022-12-07T13:52:25;160673.97;;;7.96;100.00
42945;BME280;28584;42.636;23.294;2022-12-07T13:54:59;160640.66;;;7.84;100.00
42945;BME280;28584;42.636;23.294;2022-12-07T13:57:27;160678.00;;;7.98;100.00
42945;BME280;28584;42.636;23.294;2022-12-07T13:59:54;160687.34;;;8.01;100.00
42945;BME280;28584;42.636;23.294;2022-12-07T14:02:20;160676.69;;;7.97;100.00
42945;BME280;28584;42.636;23.294;2022-12-07T14:04:48;160672.69;;;7.96;100.00
42945;BME280;28584;42.636;23.294;2022-12-07T14:07:33;160672.69;;;7.96;100.00
42945;BME280;28584;42.636;23.294;2022-12-07T14:10:03;160648.66;;;7.87;100.00
42945;BME280;28584;42.636;23.294;2022-12-07T14:12:30;160643.31;;;7.85;100.00
42945;BME280;28584;42.636;23.294;2022-12-07T14:14:57;160622.00;;;7.77;100.00
42945;BME280;28584;42.636;23.294;2022-12-07T14:17:25;160594.03;;;7.66;100.00
42945;BME280;28584;42.636;23.294;2022-12-07T14:19:57;160578.03;;;7.60;100.00
42945;BME280;28584;42.636;23.294;2022-12-07T14:22:29;160499.41;;;7.31;100.00
42945;BME280;28584;42.636;23.294;2022-12-07T14:30:19;160378.16;;;6.85;100.00
42945;BME280;28584;42.636;23.294;2022-12-07T14:32:45;160359.50;;;6.78;100.00
42945;BME280;28584;42.636;23.294;2022-12-07T14:35:16;160338.22;;;6.70;100.00
42945;BME280;28584;42.636;23.294;2022-12-07T14:37:43;160299.56;;;6.56;100.00
42945;BME280;28584;42.636;23.294;2022-12-07T14:40:22;160239.66;;;6.33;100.00
42945;BME280;28584;42.636;23.294;2022-12-07T14:42:51;160193.09;;;6.16;100.00
42945;BME280;28584;42.636;23.294;2022-12-07T14:45:21;160115.84;;;5.87;100.00
42945;BME280;28584;42.636;23.294;2022-12-07T14:47:47;160127.84;;;5.91;100.00